createdAt,value
2023-01-25T00:03:27.610Z,97119.22
2023-01-25T00:08:30.979Z,97116.91
2023-01-25T00:13:34.769Z,97121.19
2023-01-25T00:18:40.433Z,97119.72
2023-01-25T00:23:43.892Z,97117.09
2023-01-25T00:28:47.292Z,97119.22
2023-01-25T00:33:53.021Z,97123.06
2023-01-25T00:38:58.519Z,97115.63
2023-01-25T00:44:01.857Z,97115.94
2023-01-25T00:49:06.291Z,97107.22
2023-01-25T00:54:09.994Z,97108.53
2023-01-25T00:59:13.481Z,97106.38
2023-01-25T01:04:17.421Z,97110.22
2023-01-25T01:09:23.570Z,97115.03
2023-01-25T01:14:27.590Z,97120.63
2023-01-25T01:19:33.632Z,97113.72
2023-01-25T01:24:37.006Z,97111.72
2023-01-25T01:29:40.418Z,97095.88
2023-01-25T01:34:44.479Z,97100.78
2023-01-25T01:39:47.748Z,97097.50
2023-01-25T01:44:52.197Z,97090.25
2023-01-25T01:49:56.142Z,97092.72
2023-01-25T01:54:59.238Z,97092.09
2023-01-25T02:00:02.551Z,97092.44
2023-01-25T02:05:06.037Z,97097.69
2023-01-25T02:10:09.478Z,97097.69
2023-01-25T02:15:12.667Z,97087.94
2023-01-25T02:20:17.039Z,97084.22
2023-01-25T02:25:20.202Z,97094.59
2023-01-25T02:30:25.096Z,97084.66
2023-01-25T02:35:28.275Z,97086.97
2023-01-25T02:40:31.452Z,97088.25
2023-01-25T02:45:34.911Z,97080.53
2023-01-25T02:50:38.222Z,97081.69
2023-01-25T02:55:41.385Z,97071.41
2023-01-25T03:00:44.647Z,97073.38
2023-01-25T03:05:47.967Z,97079.34
2023-01-25T03:10:51.339Z,97074.88
2023-01-25T03:15:54.525Z,97060.22
2023-01-25T03:20:58.043Z,97057.88
2023-01-25T03:26:01.247Z,97055.97
2023-01-25T03:31:06.395Z,97059.94
2023-01-25T03:36:10.297Z,97063.59
2023-01-25T03:41:14.921Z,97061.94
2023-01-25T03:46:19.393Z,97054.97
2023-01-25T03:51:22.663Z,97048.69
2023-01-25T03:56:26.144Z,97048.00
2023-01-25T04:01:30.337Z,97049.19
2023-01-25T04:06:33.768Z,97055.03
2023-01-25T04:11:37.099Z,97052.72
2023-01-25T04:16:40.729Z,97049.75
2023-01-25T04:21:46.621Z,97043.81
2023-01-25T04:26:51.981Z,97033.75
2023-01-25T04:31:55.279Z,97035.91
2023-01-25T04:36:58.875Z,97039.19
2023-01-25T04:42:02.112Z,97028.31
2023-01-25T04:47:06.058Z,97020.16
2023-01-25T04:52:09.371Z,97011.66
2023-01-25T04:57:13.256Z,97007.50
2023-01-25T05:02:16.776Z,97003.88
2023-01-25T05:07:20.017Z,96998.91
2023-01-25T05:12:23.393Z,97006.97
2023-01-25T05:17:26.636Z,96992.34
2023-01-25T05:22:34.285Z,96988.34
2023-01-25T05:27:37.627Z,96986.69
2023-01-25T05:32:41.023Z,96989.16
2023-01-25T05:37:44.207Z,96995.63
2023-01-25T05:42:47.390Z,96997.94
2023-01-25T05:47:51.843Z,96990.97
2023-01-25T05:52:55.465Z,96994.28
2023-01-25T05:57:58.715Z,97004.03
2023-01-25T06:03:02.074Z,96987.56
2023-01-25T06:08:05.459Z,96987.75
2023-01-25T06:13:09.144Z,96985.25
2023-01-25T06:18:12.358Z,96983.28
2023-01-25T06:23:16.081Z,96969.56
2023-01-25T06:28:19.519Z,96968.00
2023-01-25T06:33:23.182Z,96967.16
2023-01-25T06:38:26.574Z,96952.06
2023-01-25T06:43:30.208Z,96961.13
2023-01-25T06:48:33.311Z,96962.56
2023-01-25T06:53:36.614Z,96949.66
2023-01-25T06:58:39.822Z,96941.38
2023-01-25T07:03:43.737Z,96934.09
2023-01-25T07:08:46.950Z,96929.09
2023-01-25T07:13:52.205Z,96942.31
2023-01-25T07:18:55.711Z,96938.09
2023-01-25T07:24:03.745Z,96928.16
2023-01-25T07:29:07.289Z,96931.19
2023-01-25T07:44:50.696Z,96938.41
2023-01-25T07:49:55.027Z,96934.25
2023-01-25T07:55:02.030Z,96945.41
2023-01-25T08:00:08.314Z,96939.53
2023-01-25T08:05:19.536Z,96944.84
2023-01-25T08:10:23.176Z,96947.09
2023-01-25T08:15:26.459Z,96950.84
2023-01-25T08:20:31.090Z,96945.03
2023-01-25T08:25:34.674Z,96941.06
2023-01-25T08:30:45.802Z,96939.13
2023-01-25T08:35:55.706Z,96931.25
2023-01-25T08:40:59.383Z,96919.31
2023-01-25T08:46:02.489Z,96924.59
2023-01-25T08:51:07.163Z,96914.31
2023-01-25T08:56:11.103Z,96924.66
2023-01-25T09:01:17.146Z,96913.16
2023-01-25T09:06:28.435Z,96910.78
2023-01-25T09:11:31.803Z,96897.41
2023-01-25T09:16:36.864Z,96894.00
2023-01-25T09:21:44.196Z,96897.38
2023-01-25T09:27:03.384Z,96899.28
2023-01-25T09:32:22.603Z,96897.31
2023-01-25T09:37:26.380Z,96902.81
2023-01-25T09:42:30.051Z,96896.97
2023-01-25T09:47:34.614Z,96890.50
2023-01-25T09:52:40.047Z,96896.78
2023-01-25T09:57:43.532Z,96889.88
2023-01-25T10:02:54.794Z,96886.75
2023-01-25T10:08:06.192Z,96869.19
2023-01-25T10:13:10.786Z,96877.56
2023-01-25T10:18:14.075Z,96874.56
2023-01-25T10:23:17.319Z,96880.22
2023-01-25T10:28:20.579Z,96863.50
2023-01-25T10:33:24.073Z,96856.00
2023-01-25T10:38:27.296Z,96854.06
2023-01-25T10:43:30.720Z,96842.31
2023-01-25T10:48:34.425Z,96840.16
2023-01-25T10:58:56.900Z,96823.59
2023-01-25T11:04:00.355Z,96826.19
2023-01-25T11:09:03.727Z,96811.75
2023-01-25T11:14:12.327Z,96798.25
2023-01-25T11:19:15.706Z,96798.03
2023-01-25T11:24:23.524Z,96786.06
2023-01-25T11:29:27.568Z,96787.69
2023-01-25T11:34:32.383Z,96769.28
2023-01-25T11:39:36.090Z,96756.38
2023-01-25T11:44:39.652Z,96751.28
2023-01-25T11:49:43.243Z,96747.34
2023-01-25T11:54:46.423Z,96726.16
2023-01-25T11:59:52.347Z,96719.91
2023-01-25T12:04:55.476Z,96714.53
2023-01-25T12:09:58.903Z,96703.88
2023-01-25T12:15:03.553Z,96691.41
2023-01-25T12:20:08.070Z,96680.63
2023-01-25T12:25:11.698Z,96670.63
2023-01-25T12:30:14.919Z,96672.72
2023-01-25T12:35:18.314Z,96660.81
2023-01-25T12:40:21.777Z,96652.78
2023-01-25T12:45:25.857Z,96654.44
2023-01-25T12:50:29.135Z,96650.78
2023-01-25T12:55:32.526Z,96638.69
2023-01-25T13:00:35.958Z,96638.22
2023-01-25T13:05:39.725Z,96640.75
2023-01-25T13:10:45.410Z,96630.28
2023-01-25T13:15:49.803Z,96625.84
2023-01-25T13:20:53.431Z,96621.94
2023-01-25T13:25:57.522Z,96621.47
2023-01-25T13:31:00.960Z,96614.75
2023-01-25T13:36:04.501Z,96617.09
2023-01-25T13:41:12.489Z,96614.00
2023-01-25T13:46:16.114Z,96606.34
2023-01-25T13:51:21.314Z,96601.50
2023-01-25T13:56:23.987Z,96594.78
2023-01-25T14:01:29.350Z,96591.97
2023-01-25T14:06:33.438Z,96591.78
2023-01-25T14:11:50.106Z,96588.69
2023-01-25T14:16:56.631Z,96585.97
2023-01-25T14:22:00.679Z,96586.50
2023-01-25T14:27:03.917Z,96590.56
2023-01-25T14:32:06.960Z,96575.94
2023-01-25T14:37:13.386Z,96575.50
2023-01-25T14:42:16.661Z,96554.28
2023-01-25T14:47:19.514Z,96557.56
2023-01-25T14:52:22.466Z,96563.13
2023-01-25T14:57:25.624Z,96564.09
2023-01-25T15:02:28.543Z,96551.91
2023-01-25T15:07:32.410Z,96557.38
2023-01-25T15:12:50.012Z,96556.84
2023-01-25T15:17:54.866Z,96547.00
2023-01-25T15:22:57.790Z,96527.91
2023-01-25T15:28:00.493Z,96521.81
2023-01-25T15:33:03.359Z,96522.00
2023-01-25T15:38:06.395Z,96522.72
2023-01-25T15:43:09.166Z,96521.63
2023-01-25T15:48:14.868Z,96517.53
2023-01-25T15:53:19.202Z,96515.44
2023-01-25T15:58:26.510Z,96511.72
2023-01-25T16:03:30.719Z,96510.34
2023-01-25T16:08:37.150Z,96505.72
2023-01-25T16:13:41.765Z,96510.38
2023-01-25T16:18:47.295Z,96500.97
2023-01-25T16:23:54.582Z,96493.44
2023-01-25T16:28:57.829Z,96489.97
2023-01-25T16:34:05.327Z,96493.53
2023-01-25T16:39:10.005Z,96478.88
2023-01-25T16:44:13.416Z,96470.50
2023-01-25T16:49:16.072Z,96473.75
2023-01-25T16:54:22.146Z,96475.44
2023-01-25T16:59:25.492Z,96471.94
2023-01-25T17:04:29.385Z,96462.84
2023-01-25T17:09:33.131Z,96441.41
2023-01-25T17:14:36.354Z,96447.84
2023-01-25T17:19:39.650Z,96438.66
2023-01-25T17:29:16.683Z,96430.03
2023-01-25T17:34:19.829Z,96426.50
2023-01-25T17:40:13.617Z,96425.03
2023-01-25T17:45:15.988Z,96412.19
2023-01-25T17:50:18.318Z,96407.63
2023-01-25T17:55:20.674Z,96409.34
2023-01-25T18:00:23.011Z,96395.19
2023-01-25T18:05:25.389Z,96398.63
2023-01-25T18:10:28.287Z,96392.09
2023-01-25T18:15:30.671Z,96382.97
2023-01-25T18:20:51.680Z,96379.72
2023-01-25T18:25:56.719Z,96376.25
2023-01-25T18:30:59.142Z,96372.31
2023-01-25T18:36:03.807Z,96379.16
2023-01-25T18:41:08.037Z,96368.47
2023-01-25T18:46:11.525Z,96359.81
2023-01-25T18:51:38.958Z,96353.28
2023-01-25T18:56:47.389Z,96352.16
2023-01-25T19:01:49.767Z,96348.00
2023-01-25T19:06:56.650Z,96343.63
2023-01-25T19:11:59.003Z,96334.63
2023-01-25T19:17:01.348Z,96335.13
2023-01-25T19:22:03.703Z,96312.72
2023-01-25T19:27:06.066Z,96309.91
2023-01-25T19:32:10.681Z,96302.91
2023-01-25T19:37:12.978Z,96302.72
2023-01-25T19:42:18.397Z,96298.66
2023-01-25T19:47:20.964Z,96292.66
2023-01-25T19:52:23.495Z,96292.16
2023-01-25T19:57:26.230Z,96286.56
2023-01-25T20:02:28.821Z,96271.47
2023-01-25T20:07:31.475Z,96269.41
2023-01-25T20:12:34.030Z,96271.28
2023-01-25T20:17:36.771Z,96266.75
2023-01-25T20:22:39.270Z,96257.91
2023-01-25T20:27:41.761Z,96251.53
2023-01-25T20:32:44.323Z,96244.16
2023-01-25T20:37:49.289Z,96251.19
2023-01-25T20:42:52.082Z,96243.41
2023-01-25T20:47:54.685Z,96233.72
2023-01-25T20:52:57.222Z,96233.16
2023-01-25T20:57:59.759Z,96223.66
2023-01-25T21:03:02.378Z,96219.00
2023-01-25T21:08:05.276Z,96218.63
2023-01-25T21:13:07.746Z,96204.56
2023-01-25T21:18:10.244Z,96212.53
2023-01-25T21:23:12.763Z,96207.88
2023-01-25T21:28:15.343Z,96209.44
2023-01-25T21:33:17.782Z,96194.63
2023-01-25T21:38:20.163Z,96187.81
2023-01-25T21:43:22.634Z,96192.28
2023-01-25T21:48:39.046Z,96185.75
2023-01-25T21:53:41.599Z,96185.88
2023-01-25T21:58:44.176Z,96174.84
2023-01-25T22:03:46.561Z,96175.81
2023-01-25T22:08:48.955Z,96171.66
2023-01-25T22:13:51.271Z,96157.50
2023-01-25T22:18:53.650Z,96155.22
2023-01-25T22:23:56.024Z,96151.53
2023-01-25T22:28:58.413Z,96147.78
2023-01-25T22:34:00.921Z,96151.47
2023-01-25T22:39:03.292Z,96153.69
2023-01-25T22:44:05.630Z,96149.66
2023-01-25T22:49:08.194Z,96139.94
2023-01-25T22:54:10.536Z,96139.31
2023-01-25T22:59:14.843Z,96120.31
2023-01-25T23:04:17.226Z,96117.47
2023-01-25T23:09:19.564Z,96112.44
2023-01-25T23:14:39.370Z,96099.88
2023-01-25T23:19:41.795Z,96090.34
2023-01-25T23:24:44.547Z,96088.97
2023-01-25T23:29:46.976Z,96082.06
2023-01-25T23:34:53.057Z,96087.44
2023-01-25T23:39:55.882Z,96078.00
2023-01-25T23:44:59.276Z,96082.78
2023-01-25T23:50:01.690Z,96073.78
2023-01-25T23:55:04.430Z,96066.47
